Abbot Village, Maine
Current Conditions -  °F | °C
As of 3:53 AM on Sunday 21 Dec 2014 (Local Time) from KBGR Reporting Station
Overcast Overcast  
Wind Chill: -8°   Ceiling: 3300
Heat Index: -4°   Visibility: 10mi
Dew Point: -6°   Wind: 6mph
Humidity: 88%   Direction: 350°N
Pressure: 30.36"   Gusts: NA
Location:  45.19°N, 69.45°W
Report Text: KBGR 210853Z 35005KT 10SM OVC033 M04/M06 A3036 RMK AO2 SNB0754E04 SLP283 P0000 60000 T10441061 51004
Loading
Personal Weather Stations






























Interactive Weather Map New forecast layout! Learn more

10-Day Weather Forecast

Advertisements
Track Severe Weather on mobile